Погода Фатинона неделю

Смоленская область, Россия

25 - 31 мая
  • 25мая
    Сегодня
    +8°
    +24°
    Ясно и безоблачно
    ВремяПогодаТемператураВлажностьДавлениеВетер, м/сВероятность осадков
    00:00Ясно и безоблачно+9°C61 %751 мм0.5 м/с2 %
    03:00Ясно и безоблачно+6°C69 %751 мм0.4 м/с2 %
    06:00Ясно и безоблачно+8°C66 %751 мм0.5 м/с2 %
    09:00Практически безоблачно+16°C54 %751 мм1.3 м/с2 %
    12:00Ясно и безоблачно+21°C38 %750 мм2.3 м/с2 %
    15:00Ясно и безоблачно+23°C36 %749 мм2.4 м/с2 %
    18:00Ясно и безоблачно+23°C38 %748 мм2.0 м/с2 %
    21:00Ясно и безоблачно+16°C66 %747 мм0.7 м/с2 %
  • 26мая
    Воскресенье
    +10°
    +26°
    Практически безоблачно
    ВремяПогодаТемператураВлажностьДавлениеВетер, м/сВероятность осадков
    00:00Ясно и безоблачно+11°C73 %747 мм0.6 м/с2 %
    03:00Ясно и безоблачно+9°C78 %747 мм0.6 м/с2 %
    06:00Ясно и безоблачно+11°C76 %747 мм0.8 м/с2 %
    09:00Ясно и безоблачно+20°C58 %747 мм1.6 м/с2 %
    12:00Ясно и безоблачно+24°C40 %747 мм2.7 м/с2 %
    15:00Практически безоблачно+25°C35 %747 мм2.5 м/с6 %
    18:00Небольшая облачность+24°C42 %746 мм1.8 м/с13 %
    21:00Ясно и безоблачно+18°C75 %747 мм0.9 м/с6 %
  • 27мая
    Понедельник
    +9°
    +24°
    Практически безоблачно
    ВремяПогодаТемператураВлажностьДавлениеВетер, м/сВероятность осадков
    00:00Практически безоблачно+13°C87 %747 мм0.7 м/с1 %
    03:00Ясно и безоблачно+11°C93 %747 мм0.8 м/с2 %
    06:00Ясно и безоблачно+12°C86 %748 мм0.9 м/с2 %
    09:00Ясно и безоблачно+19°C67 %748 мм1.6 м/с2 %
    12:00Практически безоблачно+22°C54 %748 мм2.5 м/с11 %
    15:00Практически безоблачно+23°C50 %748 мм2.3 м/с25 %
    18:00Практически безоблачно+23°C52 %747 мм1.9 м/с27 %
    21:00Ясно и безоблачно+18°C74 %746 мм1.0 м/с4 %
  • 28мая
    Вторник
    +10°
    +25°
    Небольшая облачность
    ВремяПогодаТемператураВлажностьДавлениеВетер, м/сВероятность осадков
    00:00Ясно и безоблачно+12°C84 %746 мм0.6 м/с2 %
    03:00Ясно и безоблачно+9°C90 %746 мм0.5 м/с2 %
    06:00Ясно и безоблачно+12°C87 %746 мм0.5 м/с2 %
    09:00Ясно и безоблачно+20°C64 %746 мм1.2 м/с2 %
    12:00Практически безоблачно+23°C50 %746 мм2.6 м/с9 %
    15:00Небольшая облачность+24°C46 %745 мм2.2 м/с19 %
    18:00Практически безоблачно+24°C47 %743 мм1.5 м/с23 %
    21:00Небольшая облачность+20°C67 %743 мм0.9 м/с5 %
  • 29мая
    Среда
    +10°
    +26°
    Небольшая облачность
    ВремяПогодаТемператураВлажностьДавлениеВетер, м/сВероятность осадков
    00:00Практически безоблачно+14°C79 %743 мм0.3 м/с2 %
    03:00Практически безоблачно+11°C87 %742 мм0.5 м/с2 %
    06:00Практически безоблачно+12°C83 %742 мм0.5 м/с9 %
    09:00Практически безоблачно+21°C58 %742 мм1.0 м/с2 %
    12:00Практически безоблачно+25°C45 %742 мм2.2 м/с20 %
    15:00Небольшая облачность+25°C41 %740 мм2.0 м/с33 %
    18:00Небольшая облачность, возможен дождь с грозой+24°C51 %740 мм1.3 м/с29 %
    21:00Ясно и безоблачно+20°C59 %740 мм0.3 м/с15 %
Мы используем cookies
Соглашаюсь